Time,TemperatureF,DewpointF,PressureIn,WindDirection,WindDirectionDegrees,WindSpeedMPH,WindSpeedGustMPH,Humidity,HourlyPrecipIn,Conditions,Clouds,dailyrainin,SolarRadiationWatts/m^2,SoftwareType,DateUTC
2013-02-06 00:02:00,9.0,6.0,-100.00,SSE,157,1.0,5.0,89,0.00,,,0.01,0.000000,,2013-02-06 05:02:00,
2013-02-06 00:42:00,5.0,3.0,-100.00,NNE,13,2.0,3.0,90,0.00,,,0.01,0.000000,,2013-02-06 05:42:00,
2013-02-06 00:53:00,5.0,3.0,-100.00,NNE,13,2.0,3.0,90,0.00,,,0.01,0.000000,,2013-02-06 05:53:00,
2013-02-06 01:01:00,5.0,3.0,-100.00,NNE,13,2.0,3.0,90,0.00,,,0.01,0.000000,,2013-02-06 06:01:00,
2013-02-06 01:11:00,5.0,3.0,-100.00,NNE,13,2.0,3.0,90,0.00,,,0.01,0.000000,,2013-02-06 06:11:00,
2013-02-06 01:32:00,1.0,-2.0,-100.00,ENE,64,0.0,3.0,87,0.00,,,0.01,0.000000,,2013-02-06 06:32:00,
2013-02-06 01:42:00,1.0,-2.0,-100.00,ENE,64,0.0,3.0,87,0.00,,,0.01,0.000000,,2013-02-06 06:42:00,
2013-02-06 01:52:00,1.0,-2.0,-100.00,ENE,64,0.0,3.0,87,0.00,,,0.01,0.000000,,2013-02-06 06:52:00,
2013-02-06 02:01:00,1.0,-2.0,-100.00,ENE,64,0.0,3.0,87,0.00,,,0.01,0.000000,,2013-02-06 07:01:00,
2013-02-06 02:11:00,1.0,-2.0,-100.00,ENE,64,0.0,3.0,87,0.00,,,0.01,0.000000,,2013-02-06 07:11:00,
2013-02-06 02:32:00,-1.0,-5.0,-100.00,SW,236,0.0,3.0,84,0.00,,,-99.99,0.000000,,2013-02-06 07:32:00,
2013-02-06 02:42:00,-1.0,-5.0,-100.00,SW,236,0.0,3.0,84,0.00,,,-99.99,0.000000,,2013-02-06 07:42:00,
2013-02-06 02:52:00,-1.0,-5.0,-100.00,SW,236,0.0,3.0,84,0.00,,,-99.99,0.000000,,2013-02-06 07:52:00,
2013-02-06 03:01:00,-1.0,-5.0,-100.00,SW,236,0.0,3.0,84,0.00,,,-99.99,0.000000,,2013-02-06 08:01:00,
2013-02-06 03:11:00,-1.0,-5.0,-100.00,SW,236,0.0,3.0,84,0.00,,,-99.99,0.000000,,2013-02-06 08:11:00,
2013-02-06 03:42:00,-3.0,-7.0,-100.00,NW,321,0.0,2.0,82,0.00,,,0.01,0.000000,,2013-02-06 08:42:00,
2013-02-06 03:53:00,-3.0,-7.0,-100.00,NW,321,0.0,2.0,82,0.00,,,0.01,0.000000,,2013-02-06 08:53:00,
2013-02-06 04:01:00,-3.0,-7.0,-100.00,NW,321,0.0,2.0,82,0.00,,,0.01,0.000000,,2013-02-06 09:01:00,
2013-02-06 04:11:00,-3.0,-7.0,-100.00,NW,321,0.0,2.0,82,0.00,,,0.01,0.000000,,2013-02-06 09:11:00,
2013-02-06 04:32:00,-4.0,-8.0,-100.00,South,188,1.0,3.0,81,0.00,,,0.01,0.000000,,2013-02-06 09:32:00,
2013-02-06 04:42:00,-4.0,-8.0,-100.00,South,188,1.0,3.0,81,0.00,,,0.01,0.000000,,2013-02-06 09:42:00,
2013-02-06 04:52:00,-4.0,-8.0,-100.00,South,188,1.0,3.0,81,0.00,,,0.01,0.000000,,2013-02-06 09:52:00,
2013-02-06 05:01:00,-4.0,-8.0,-100.00,South,188,1.0,3.0,81,0.00,,,0.01,0.000000,,2013-02-06 10:01:00,
2013-02-06 05:11:00,-4.0,-8.0,-100.00,South,188,1.0,3.0,81,0.00,,,0.01,0.000000,,2013-02-06 10:11:00,
2013-02-06 05:32:00,-6.0,-11.0,-100.00,South,177,0.0,2.0,80,0.00,,,0.01,0.000000,,2013-02-06 10:32:00,
2013-02-06 05:42:00,-6.0,-11.0,-100.00,South,177,0.0,2.0,80,0.00,,,0.01,0.000000,,2013-02-06 10:42:00,
2013-02-06 05:52:00,-6.0,-11.0,-100.00,South,177,0.0,2.0,80,0.00,,,0.01,0.000000,,2013-02-06 10:52:00,
2013-02-06 06:01:00,-6.0,-11.0,-100.00,South,177,0.0,2.0,80,0.00,,,0.01,0.000000,,2013-02-06 11:01:00,
2013-02-06 06:11:00,-6.0,-11.0,-100.00,South,177,0.0,2.0,80,0.00,,,0.01,0.000000,,2013-02-06 11:11:00,
2013-02-06 06:12:00,-7.0,-12.0,-100.00,WNW,293,0.0,0.0,79,0.00,,,0.01,0.000000,,2013-02-06 11:12:00,
2013-02-06 06:33:00,-7.0,-12.0,-100.00,WNW,293,0.0,0.0,79,0.00,,,0.01,0.000000,,2013-02-06 11:33:00,
2013-02-06 06:42:00,-7.0,-12.0,-100.00,WNW,293,0.0,0.0,79,0.00,,,0.01,0.000000,,2013-02-06 11:42:00,
2013-02-06 06:53:00,-7.0,-12.0,-100.00,WNW,293,0.0,0.0,79,0.00,,,0.01,0.000000,,2013-02-06 11:53:00,
2013-02-06 07:02:00,-7.0,-12.0,-100.00,WNW,293,0.0,0.0,79,0.00,,,0.01,0.000000,,2013-02-06 12:02:00,
2013-02-06 07:12:00,-8.0,-13.0,-100.00,West,273,0.0,0.0,77,0.00,,,0.01,0.000000,,2013-02-06 12:12:00,
2013-02-06 07:32:00,-8.0,-13.0,-100.00,West,273,0.0,0.0,77,0.00,,,0.01,0.000000,,2013-02-06 12:32:00,
2013-02-06 07:42:00,-8.0,-13.0,-100.00,West,273,0.0,0.0,77,0.00,,,0.01,0.000000,,2013-02-06 12:42:00,
2013-02-06 07:52:00,-8.0,-13.0,-100.00,West,273,0.0,0.0,77,0.00,,,0.01,0.000000,,2013-02-06 12:52:00,
2013-02-06 08:01:00,-8.0,-13.0,-100.00,West,273,0.0,0.0,77,0.00,,,0.01,0.000000,,2013-02-06 13:01:00,
2013-02-06 08:32:00,-8.0,-13.0,-100.00,SW,229,0.0,0.0,77,0.00,,,0.01,1.000000,,2013-02-06 13:32:00,
2013-02-06 08:42:00,-8.0,-13.0,-100.00,SW,229,0.0,0.0,77,0.00,,,0.01,1.000000,,2013-02-06 13:42:00,
2013-02-06 08:52:00,-8.0,-13.0,-100.00,SW,229,0.0,0.0,77,0.00,,,0.01,1.000000,,2013-02-06 13:52:00,
2013-02-06 09:02:00,-8.0,-13.0,-100.00,SW,229,0.0,0.0,77,0.00,,,0.01,1.000000,,2013-02-06 14:02:00,
2013-02-06 09:11:00,-8.0,-13.0,-100.00,SW,229,0.0,0.0,77,0.00,,,0.01,1.000000,,2013-02-06 14:11:00,
2013-02-06 09:32:00,-4.0,-9.0,-100.00,WNW,283,0.0,0.0,79,0.00,,,0.01,40.000000,,2013-02-06 14:32:00,
2013-02-06 09:42:00,-4.0,-9.0,-100.00,WNW,283,0.0,0.0,79,0.00,,,0.01,40.000000,,2013-02-06 14:42:00,
2013-02-06 09:52:00,-4.0,-9.0,-100.00,WNW,283,0.0,0.0,79,0.00,,,0.01,40.000000,,2013-02-06 14:52:00,
2013-02-06 10:01:00,-4.0,-9.0,-100.00,WNW,283,0.0,0.0,79,0.00,,,0.01,40.000000,,2013-02-06 15:01:00,
2013-02-06 10:11:00,-4.0,-9.0,-100.00,WNW,283,0.0,0.0,79,0.00,,,0.01,40.000000,,2013-02-06 15:11:00,
2013-02-06 10:32:00,8.0,4.0,-100.00,SE,130,3.0,4.0,83,0.00,,,0.01,165.000000,,2013-02-06 15:32:00,
2013-02-06 10:42:00,8.0,4.0,-100.00,SE,130,3.0,4.0,83,0.00,,,0.01,165.000000,,2013-02-06 15:42:00,
2013-02-06 10:52:00,8.0,4.0,-100.00,SE,130,3.0,4.0,83,0.00,,,0.01,165.000000,,2013-02-06 15:52:00,
2013-02-06 11:01:00,8.0,4.0,-100.00,SE,130,3.0,4.0,83,0.00,,,0.01,165.000000,,2013-02-06 16:01:00,
2013-02-06 11:11:00,8.0,4.0,-100.00,SE,130,3.0,4.0,83,0.00,,,0.01,165.000000,,2013-02-06 16:11:00,
2013-02-06 11:32:00,20.0,15.0,-100.00,SSE,156,4.0,6.0,81,0.00,,,0.00,342.000000,,2013-02-06 16:32:00,
2013-02-06 12:02:00,20.0,15.0,-100.00,SSE,156,4.0,6.0,81,0.00,,,0.00,342.000000,,2013-02-06 17:02:00,
2013-02-06 12:11:00,20.0,15.0,-100.00,SSE,156,4.0,6.0,81,0.00,,,0.00,342.000000,,2013-02-06 17:11:00,
2013-02-06 12:32:00,21.0,14.0,-100.00,SSE,149,4.0,8.0,73,0.00,,,0.00,272.000000,,2013-02-06 17:32:00,
2013-02-06 12:42:00,21.0,14.0,-100.00,SSE,149,4.0,8.0,73,0.00,,,0.00,272.000000,,2013-02-06 17:42:00,
2013-02-06 12:52:00,21.0,14.0,-100.00,SSE,149,4.0,8.0,73,0.00,,,0.00,272.000000,,2013-02-06 17:52:00,
2013-02-06 13:01:00,21.0,14.0,-100.00,SSE,149,4.0,8.0,73,0.00,,,0.00,272.000000,,2013-02-06 18:01:00,
2013-02-06 13:11:00,21.0,14.0,-100.00,SSE,149,4.0,8.0,73,0.00,,,0.00,272.000000,,2013-02-06 18:11:00,
2013-02-06 13:33:00,26.0,16.0,-100.00,WSW,239,3.0,9.0,64,0.00,,,0.00,395.000000,,2013-02-06 18:33:00,
2013-02-06 13:42:00,26.0,16.0,-100.00,WSW,239,3.0,9.0,64,0.00,,,0.00,395.000000,,2013-02-06 18:42:00,
2013-02-06 13:52:00,26.0,16.0,-100.00,WSW,239,3.0,9.0,64,0.00,,,0.00,395.000000,,2013-02-06 18:52:00,
2013-02-06 14:01:00,26.0,16.0,-100.00,WSW,239,3.0,9.0,64,0.00,,,0.00,395.000000,,2013-02-06 19:01:00,
2013-02-06 14:11:00,26.0,16.0,-100.00,WSW,239,3.0,9.0,64,0.00,,,0.00,395.000000,,2013-02-06 19:11:00,
2013-02-06 14:42:00,28.0,15.0,-100.00,SSW,201,4.0,8.0,57,0.00,,,0.00,365.000000,,2013-02-06 19:42:00,
2013-02-06 14:52:00,28.0,15.0,-100.00,SSW,201,4.0,8.0,57,0.00,,,0.00,365.000000,,2013-02-06 19:52:00,
2013-02-06 15:01:00,28.0,15.0,-100.00,SSW,201,4.0,8.0,57,0.00,,,0.00,365.000000,,2013-02-06 20:01:00,
2013-02-06 15:11:00,28.0,15.0,-100.00,SSW,201,4.0,8.0,57,0.00,,,0.00,365.000000,,2013-02-06 20:11:00,
2013-02-06 15:42:00,26.0,15.0,-100.00,South,173,5.0,9.0,63,0.00,,,0.00,213.000000,,2013-02-06 20:42:00,
2013-02-06 15:52:00,26.0,15.0,-100.00,South,173,5.0,9.0,63,0.00,,,0.00,213.000000,,2013-02-06 20:52:00,
2013-02-06 16:02:00,26.0,15.0,-100.00,South,173,5.0,9.0,63,0.00,,,0.00,213.000000,,2013-02-06 21:02:00,
2013-02-06 16:11:00,26.0,15.0,-100.00,South,173,5.0,9.0,63,0.00,,,0.00,213.000000,,2013-02-06 21:11:00,
2013-02-06 16:32:00,24.0,19.0,-100.00,SSE,167,4.0,9.0,82,0.00,,,0.00,85.000000,,2013-02-06 21:32:00,
2013-02-06 16:42:00,24.0,19.0,-100.00,SSE,167,4.0,9.0,82,0.00,,,0.00,85.000000,,2013-02-06 21:42:00,
2013-02-06 16:52:00,24.0,19.0,-100.00,SSE,167,4.0,9.0,82,0.00,,,0.00,85.000000,,2013-02-06 21:52:00,
2013-02-06 17:01:00,24.0,19.0,-100.00,SSE,167,4.0,9.0,82,0.00,,,0.00,85.000000,,2013-02-06 22:01:00,
2013-02-06 17:11:00,24.0,19.0,-100.00,SSE,167,4.0,9.0,82,0.00,,,0.00,85.000000,,2013-02-06 22:11:00,
2013-02-06 17:42:00,23.0,22.0,-100.00,SE,128,4.0,10.0,97,0.01,,,-99.99,41.000000,,2013-02-06 22:42:00,
2013-02-06 17:52:00,23.0,22.0,-100.00,SE,128,4.0,10.0,97,0.01,,,-99.99,41.000000,,2013-02-06 22:52:00,
2013-02-06 18:01:00,23.0,22.0,-100.00,SE,128,4.0,10.0,97,0.01,,,-99.99,41.000000,,2013-02-06 23:01:00,
2013-02-06 18:11:00,23.0,22.0,-100.00,SE,128,4.0,10.0,97,0.01,,,-99.99,41.000000,,2013-02-06 23:11:00,
2013-02-06 18:32:00,22.0,20.0,-100.00,East,97,5.0,8.0,93,0.00,,,0.01,16.000000,,2013-02-06 23:32:00,
2013-02-06 18:42:00,22.0,20.0,-100.00,East,97,5.0,8.0,93,0.00,,,0.01,16.000000,,2013-02-06 23:42:00,
2013-02-06 18:52:00,22.0,20.0,-100.00,East,97,5.0,8.0,93,0.00,,,0.01,16.000000,,2013-02-06 23:52:00,
2013-02-06 19:01:00,22.0,20.0,-100.00,East,97,5.0,8.0,93,0.00,,,0.01,16.000000,,2013-02-07 00:01:00,
2013-02-06 19:11:00,22.0,20.0,-100.00,East,97,5.0,8.0,93,0.00,,,0.01,16.000000,,2013-02-07 00:11:00,
2013-02-06 19:32:00,22.0,21.0,-100.00,ESE,105,4.0,9.0,95,0.00,,,0.01,0.000000,,2013-02-07 00:32:00,
2013-02-06 19:42:00,22.0,21.0,-100.00,ESE,105,4.0,9.0,95,0.00,,,0.01,0.000000,,2013-02-07 00:42:00,
2013-02-06 19:52:00,22.0,21.0,-100.00,ESE,105,4.0,9.0,95,0.00,,,0.01,0.000000,,2013-02-07 00:52:00,
2013-02-06 20:01:00,22.0,21.0,-100.00,ESE,105,4.0,9.0,95,0.00,,,0.01,0.000000,,2013-02-07 01:01:00,
2013-02-06 20:11:00,22.0,21.0,-100.00,ESE,105,4.0,9.0,95,0.00,,,0.01,0.000000,,2013-02-07 01:11:00,
2013-02-06 20:32:00,23.0,23.0,-100.00,ENE,75,5.0,10.0,98,0.00,,,0.01,0.000000,,2013-02-07 01:32:00,
2013-02-06 20:42:00,23.0,23.0,-100.00,ENE,75,5.0,10.0,98,0.00,,,0.01,0.000000,,2013-02-07 01:42:00,
2013-02-06 20:52:00,23.0,23.0,-100.00,ENE,75,5.0,10.0,98,0.00,,,0.01,0.000000,,2013-02-07 01:52:00,
2013-02-06 21:01:00,23.0,23.0,-100.00,ENE,75,5.0,10.0,98,0.00,,,0.01,0.000000,,2013-02-07 02:01:00,
2013-02-06 21:11:00,23.0,23.0,-100.00,ENE,75,5.0,10.0,98,0.00,,,0.01,0.000000,,2013-02-07 02:11:00,
2013-02-06 21:32:00,24.0,24.0,-100.00,East,97,6.0,12.0,100,0.00,,,0.01,0.000000,,2013-02-07 02:32:00,
2013-02-06 21:42:00,24.0,24.0,-100.00,East,97,6.0,12.0,100,0.00,,,0.01,0.000000,,2013-02-07 02:42:00,
2013-02-06 21:52:00,24.0,24.0,-100.00,East,97,6.0,12.0,100,0.00,,,0.01,0.000000,,2013-02-07 02:52:00,
2013-02-06 22:02:00,24.0,24.0,-100.00,East,97,6.0,12.0,100,0.00,,,0.01,0.000000,,2013-02-07 03:02:00,
2013-02-06 22:11:00,24.0,24.0,-100.00,East,97,6.0,12.0,100,0.00,,,0.01,0.000000,,2013-02-07 03:11:00,
2013-02-06 22:32:00,24.0,24.0,-100.00,NNE,30,3.0,10.0,100,0.00,,,0.01,0.000000,,2013-02-07 03:32:00,
2013-02-06 22:42:00,24.0,24.0,-100.00,NNE,30,3.0,10.0,100,0.00,,,0.01,0.000000,,2013-02-07 03:42:00,
2013-02-06 22:52:00,24.0,24.0,-100.00,NNE,30,3.0,10.0,100,0.00,,,0.01,0.000000,,2013-02-07 03:52:00,
2013-02-06 23:01:00,24.0,24.0,-100.00,NNE,30,3.0,10.0,100,0.00,,,0.01,0.000000,,2013-02-07 04:01:00,
2013-02-06 23:11:00,24.0,24.0,-100.00,NNE,30,3.0,10.0,100,0.00,,,0.01,0.000000,,2013-02-07 04:11:00,
2013-02-06 23:32:00,24.0,24.0,-100.00,ENE,66,4.0,6.0,100,0.00,,,0.01,0.000000,,2013-02-07 04:32:00,
2013-02-06 23:42:00,24.0,24.0,-100.00,ENE,66,4.0,6.0,100,0.00,,,0.01,0.000000,,2013-02-07 04:42:00,
2013-02-06 23:53:00,24.0,24.0,-100.00,ENE,66,4.0,6.0,100,0.00,,,0.01,0.000000,,2013-02-07 04:53:00,